createdAt,value
2019-04-16T00:00:24.036Z,22.35
2019-04-16T00:01:24.020Z,22.31
2019-04-16T00:02:24.009Z,22.35
2019-04-16T00:03:24.075Z,22.27
2019-04-16T00:04:25.001Z,22.35
2019-04-16T00:05:27.471Z,22.33
2019-04-16T00:06:23.968Z,22.37
2019-04-16T00:07:23.957Z,22.31
2019-04-16T00:08:27.678Z,22.31
2019-04-16T00:09:23.952Z,22.37
2019-04-16T00:10:23.921Z,22.33
2019-04-16T00:11:23.907Z,22.30
2019-04-16T00:12:23.898Z,22.33
2019-04-16T00:13:23.885Z,22.46
2019-04-16T00:14:23.880Z,22.33
2019-04-16T00:15:23.900Z,22.45
2019-04-16T00:16:23.851Z,22.39
2019-04-16T00:17:23.842Z,22.40
2019-04-16T00:18:23.832Z,22.39
2019-04-16T00:19:23.819Z,22.35
2019-04-16T00:20:23.808Z,22.39
2019-04-16T00:21:23.802Z,22.40
2019-04-16T00:22:33.698Z,22.33
2019-04-16T00:23:23.774Z,22.37
2019-04-16T00:24:23.766Z,22.37
2019-04-16T00:25:23.792Z,22.36
2019-04-16T00:26:26.509Z,22.33
2019-04-16T00:27:28.298Z,22.28
2019-04-16T00:28:24.714Z,22.36
2019-04-16T00:29:23.703Z,22.31
2019-04-16T00:30:23.690Z,22.33
2019-04-16T00:31:23.717Z,22.36
2019-04-16T00:32:26.067Z,22.37
2019-04-16T00:33:23.658Z,22.35
2019-04-16T00:34:23.647Z,22.31
2019-04-16T00:35:23.641Z,22.35
2019-04-16T00:36:23.629Z,22.27
2019-04-16T00:37:23.631Z,22.33
2019-04-16T00:38:23.605Z,22.40
2019-04-16T00:39:24.935Z,22.30
2019-04-16T00:40:26.346Z,22.39
2019-04-16T00:41:23.570Z,22.37
2019-04-16T00:42:23.559Z,22.31
2019-04-16T00:43:23.561Z,22.42
2019-04-16T00:44:23.535Z,22.35
2019-04-16T00:45:23.518Z,22.31
2019-04-16T00:46:23.511Z,22.40
2019-04-16T00:47:23.496Z,22.36
2019-04-16T00:48:23.491Z,22.31
2019-04-16T00:49:26.330Z,22.35
2019-04-16T00:50:23.463Z,22.30
2019-04-16T00:51:23.456Z,22.31
2019-04-16T00:52:23.461Z,22.33
2019-04-16T00:53:36.341Z,22.37
2019-04-16T00:54:23.417Z,22.42
2019-04-16T00:55:23.481Z,22.31
2019-04-16T00:56:23.401Z,22.33
2019-04-16T00:57:23.390Z,22.31
2019-04-16T00:58:23.371Z,22.27
2019-04-16T00:59:24.257Z,22.39
2019-04-16T01:00:23.349Z,22.35
2019-04-16T01:01:23.347Z,22.39
2019-04-16T01:02:23.329Z,22.35
2019-04-16T01:03:23.316Z,22.35
2019-04-16T01:04:23.343Z,22.35
2019-04-16T01:05:23.292Z,22.28
2019-04-16T01:06:23.280Z,22.35
2019-04-16T01:07:23.270Z,22.40
2019-04-16T01:08:23.263Z,22.37
2019-04-16T01:09:23.256Z,22.39
2019-04-16T01:10:23.273Z,22.31
2019-04-16T01:11:23.223Z,22.36
2019-04-16T01:12:23.218Z,22.36
2019-04-16T01:13:24.508Z,22.45
2019-04-16T01:14:24.278Z,22.36
2019-04-16T01:15:23.186Z,22.37
2019-04-16T01:16:23.208Z,22.40
2019-04-16T01:17:23.161Z,22.35
2019-04-16T01:18:23.145Z,22.35
2019-04-16T01:19:23.138Z,22.42
2019-04-16T01:20:23.125Z,22.35
2019-04-16T01:21:23.113Z,22.31
2019-04-16T01:22:23.115Z,22.35
2019-04-16T01:23:23.093Z,22.27
2019-04-16T01:24:33.297Z,22.40
2019-04-16T01:25:23.971Z,22.40
2019-04-16T01:26:24.187Z,22.37
2019-04-16T01:27:23.079Z,22.37
2019-04-16T01:28:23.039Z,22.39
2019-04-16T01:29:23.028Z,22.39
2019-04-16T01:30:23.009Z,22.40
2019-04-16T01:31:23.006Z,22.37
2019-04-16T01:32:22.987Z,22.37
2019-04-16T01:33:23.013Z,22.37
2019-04-16T01:34:22.969Z,22.35
2019-04-16T01:35:22.953Z,22.33
2019-04-16T01:36:23.764Z,22.39
2019-04-16T01:37:25.548Z,22.36
2019-04-16T01:38:27.683Z,22.36
2019-04-16T01:39:23.948Z,22.40
2019-04-16T01:40:22.902Z,22.33
2019-04-16T01:41:22.898Z,22.37
2019-04-16T01:42:23.658Z,22.36
2019-04-16T01:43:25.516Z,22.37
2019-04-16T01:44:22.851Z,22.35
2019-04-16T01:45:22.885Z,22.35
2019-04-16T01:46:22.829Z,22.37
2019-04-16T01:47:22.824Z,22.35
2019-04-16T01:48:22.807Z,22.37
2019-04-16T01:49:22.800Z,22.35
2019-04-16T01:50:22.788Z,22.35
2019-04-16T01:51:22.814Z,22.33
2019-04-16T01:52:22.770Z,22.40
2019-04-16T01:53:22.751Z,22.37
2019-04-16T01:54:23.461Z,22.30
2019-04-16T01:55:32.854Z,22.27
2019-04-16T01:56:27.797Z,22.40
2019-04-16T01:57:23.747Z,22.33
2019-04-16T01:58:22.695Z,22.39
2019-04-16T01:59:22.692Z,22.35
2019-04-16T02:00:22.672Z,22.31
2019-04-16T02:01:22.661Z,22.35
2019-04-16T02:02:22.662Z,22.33
2019-04-16T02:03:22.664Z,22.30
2019-04-16T02:04:22.631Z,22.36
2019-04-16T02:05:23.134Z,22.37
2019-04-16T02:06:25.668Z,22.36
2019-04-16T02:07:22.626Z,22.33
2019-04-16T02:08:22.582Z,22.37
2019-04-16T02:09:23.146Z,22.31
2019-04-16T02:10:22.559Z,22.30
2019-04-16T02:11:22.548Z,22.37
2019-04-16T02:12:22.537Z,22.33
2019-04-16T02:13:22.530Z,22.28
2019-04-16T02:14:22.611Z,22.31
2019-04-16T02:15:22.552Z,22.37
2019-04-16T02:16:25.174Z,22.36
2019-04-16T02:17:26.780Z,22.35
2019-04-16T02:18:23.473Z,22.35
2019-04-16T02:19:22.460Z,22.36
2019-04-16T02:20:22.467Z,22.36
2019-04-16T02:21:22.441Z,22.28
2019-04-16T02:22:22.430Z,22.36
2019-04-16T02:23:22.426Z,22.35
2019-04-16T02:24:22.407Z,22.33
2019-04-16T02:25:22.391Z,22.35
2019-04-16T02:26:32.952Z,22.33
2019-04-16T02:27:23.507Z,22.35
2019-04-16T02:28:22.362Z,22.35
2019-04-16T02:29:22.346Z,22.28
2019-04-16T02:30:22.341Z,22.36
2019-04-16T02:31:22.329Z,22.28
2019-04-16T02:32:22.338Z,22.24
2019-04-16T02:33:22.400Z,22.25
2019-04-16T02:34:22.293Z,22.30
2019-04-16T02:35:22.281Z,22.21
2019-04-16T02:36:22.265Z,22.30
2019-04-16T02:37:22.262Z,22.31
2019-04-16T02:38:22.303Z,22.31
2019-04-16T02:39:27.486Z,22.30
2019-04-16T02:40:23.235Z,22.30
2019-04-16T02:41:23.251Z,22.28
2019-04-16T02:42:22.205Z,22.28
2019-04-16T02:43:22.302Z,22.31
2019-04-16T02:44:22.215Z,22.37
2019-04-16T02:45:23.561Z,22.31
2019-04-16T02:46:22.159Z,22.35
2019-04-16T02:47:22.142Z,22.31
2019-04-16T02:48:22.129Z,22.28
2019-04-16T02:49:24.427Z,22.28
2019-04-16T02:50:22.143Z,22.35
2019-04-16T02:51:22.102Z,22.30
2019-04-16T02:52:22.089Z,22.27
2019-04-16T02:53:24.640Z,22.33
2019-04-16T02:54:22.073Z,22.33
2019-04-16T02:55:22.056Z,22.36
2019-04-16T02:56:22.078Z,22.31
2019-04-16T02:57:32.747Z,22.35
2019-04-16T02:58:22.022Z,22.35
2019-04-16T02:59:22.025Z,22.39
2019-04-16T03:00:21.996Z,22.36
2019-04-16T03:01:21.986Z,22.33
2019-04-16T03:02:23.114Z,22.30
2019-04-16T03:03:22.240Z,22.33
2019-04-16T03:04:26.702Z,22.30
2019-04-16T03:05:22.937Z,22.42
2019-04-16T03:06:21.929Z,22.40
2019-04-16T03:07:21.957Z,22.39
2019-04-16T03:08:21.908Z,22.37
2019-04-16T03:09:21.893Z,22.39
2019-04-16T03:10:21.882Z,22.37
2019-04-16T03:11:21.877Z,22.35
2019-04-16T03:12:21.867Z,22.37
2019-04-16T03:13:23.383Z,22.31
2019-04-16T03:14:21.837Z,22.35
2019-04-16T03:15:21.827Z,22.31
2019-04-16T03:16:21.814Z,22.30
2019-04-16T03:17:21.805Z,22.37
2019-04-16T03:18:21.792Z,22.43
2019-04-16T03:19:21.801Z,22.28
2019-04-16T03:20:23.875Z,22.45
2019-04-16T03:21:24.574Z,22.40
2019-04-16T03:22:22.750Z,22.40
2019-04-16T03:23:21.736Z,22.27
2019-04-16T03:24:21.731Z,22.46
2019-04-16T03:25:21.754Z,22.45
2019-04-16T03:26:21.707Z,22.40
2019-04-16T03:27:22.850Z,22.40
2019-04-16T03:28:32.003Z,22.42
2019-04-16T03:29:21.682Z,22.43
2019-04-16T03:30:21.665Z,22.40
2019-04-16T03:31:23.402Z,22.35
2019-04-16T03:32:21.639Z,22.42
2019-04-16T03:33:21.631Z,22.45
2019-04-16T03:34:22.584Z,22.40
2019-04-16T03:35:25.183Z,22.33
2019-04-16T03:36:21.597Z,22.36
2019-04-16T03:37:21.625Z,22.36
2019-04-16T03:38:21.575Z,22.35
2019-04-16T03:39:21.566Z,22.35
2019-04-16T03:40:24.747Z,22.45
2019-04-16T03:41:21.539Z,22.39
2019-04-16T03:42:21.535Z,22.37
2019-04-16T03:43:21.530Z,22.45
2019-04-16T03:44:21.502Z,22.36
2019-04-16T03:45:21.490Z,22.40
2019-04-16T03:46:21.482Z,22.37
2019-04-16T03:47:21.472Z,22.36
2019-04-16T03:48:23.451Z,22.40
2019-04-16T03:49:21.451Z,22.40
2019-04-16T03:50:21.446Z,22.45
2019-04-16T03:51:21.430Z,22.45
2019-04-16T03:52:21.411Z,22.30
2019-04-16T03:53:21.407Z,22.40
2019-04-16T03:54:22.340Z,22.37
2019-04-16T03:55:25.261Z,22.33
2019-04-16T03:56:21.373Z,22.36
2019-04-16T03:57:21.362Z,22.35
2019-04-16T03:58:21.342Z,22.36
2019-04-16T03:59:32.060Z,22.43
2019-04-16T04:00:21.323Z,22.36
2019-04-16T04:01:21.317Z,22.42
2019-04-16T04:02:22.909Z,22.33
2019-04-16T04:03:25.834Z,22.33
2019-04-16T04:04:22.283Z,22.42
2019-04-16T04:05:21.333Z,22.31
2019-04-16T04:06:21.254Z,22.33
2019-04-16T04:07:21.243Z,22.35
2019-04-16T04:08:21.235Z,22.37
2019-04-16T04:09:22.203Z,22.35
2019-04-16T04:10:30.343Z,22.35
2019-04-16T04:11:22.235Z,22.39
2019-04-16T04:12:21.188Z,22.27
2019-04-16T04:13:21.179Z,22.35
2019-04-16T04:14:23.289Z,22.39
2019-04-16T04:15:25.981Z,22.39
2019-04-16T04:16:22.142Z,22.28
2019-04-16T04:17:21.174Z,22.35
2019-04-16T04:18:21.118Z,22.33
2019-04-16T04:19:21.120Z,22.37
2019-04-16T04:20:21.100Z,22.35
2019-04-16T04:21:22.532Z,22.37
2019-04-16T04:22:22.816Z,22.40
2019-04-16T04:23:21.071Z,22.35
2019-04-16T04:24:21.057Z,22.40
2019-04-16T04:25:21.049Z,22.31
2019-04-16T04:26:21.051Z,22.31
2019-04-16T04:27:21.022Z,22.28
2019-04-16T04:28:21.011Z,22.39
2019-04-16T04:29:24.658Z,22.36
2019-04-16T04:30:30.928Z,22.36
2019-04-16T04:31:20.979Z,22.35
2019-04-16T04:32:21.002Z,22.39
2019-04-16T04:33:20.956Z,22.33
2019-04-16T04:34:20.958Z,22.39
2019-04-16T04:35:22.250Z,22.35
2019-04-16T04:36:22.962Z,22.33
2019-04-16T04:37:21.941Z,22.39
2019-04-16T04:38:20.902Z,22.37
2019-04-16T04:39:20.888Z,22.35
2019-04-16T04:40:20.875Z,22.36
2019-04-16T04:41:23.416Z,22.37
2019-04-16T04:42:20.850Z,22.36
2019-04-16T04:43:20.879Z,22.37
2019-04-16T04:44:20.829Z,22.37
2019-04-16T04:45:20.817Z,22.30
2019-04-16T04:46:20.805Z,22.31
2019-04-16T04:47:20.799Z,22.40
2019-04-16T04:48:24.076Z,22.37
2019-04-16T04:49:20.807Z,22.42
2019-04-16T04:50:20.760Z,22.36
2019-04-16T04:51:20.754Z,22.35
2019-04-16T04:52:20.741Z,22.37
2019-04-16T04:53:20.914Z,22.36
2019-04-16T04:54:22.629Z,22.36
2019-04-16T04:55:23.391Z,22.36
2019-04-16T04:56:21.695Z,22.31
2019-04-16T04:57:20.681Z,22.35
2019-04-16T04:58:20.672Z,22.35
2019-04-16T04:59:20.660Z,22.36
2019-04-16T05:00:20.649Z,22.39
2019-04-16T05:01:31.616Z,22.35
2019-04-16T05:02:20.625Z,22.37
2019-04-16T05:03:20.614Z,22.39
2019-04-16T05:04:21.166Z,22.40
2019-04-16T05:05:24.237Z,22.33
2019-04-16T05:06:20.618Z,22.35
2019-04-16T05:07:20.606Z,22.28
2019-04-16T05:08:20.557Z,22.28
2019-04-16T05:09:20.549Z,22.28
2019-04-16T05:10:20.534Z,22.35
2019-04-16T05:11:20.528Z,22.36
2019-04-16T05:12:21.271Z,22.31
2019-04-16T05:13:23.952Z,22.39
2019-04-16T05:14:20.698Z,22.37
2019-04-16T05:15:20.481Z,22.42
2019-04-16T05:16:20.466Z,22.33
2019-04-16T05:17:20.452Z,22.43
2019-04-16T05:18:20.454Z,22.36
2019-04-16T05:19:20.433Z,22.42
2019-04-16T05:20:20.421Z,22.47
2019-04-16T05:21:20.413Z,22.42
2019-04-16T05:22:21.856Z,22.51
2019-04-16T05:23:24.661Z,22.43
2019-04-16T05:24:21.588Z,22.35
2019-04-16T05:25:20.474Z,22.45
2019-04-16T05:26:20.355Z,22.51
2019-04-16T05:27:20.349Z,22.54
2019-04-16T05:28:20.497Z,22.60
2019-04-16T05:29:20.345Z,22.61
2019-04-16T05:30:21.687Z,22.64
2019-04-16T05:31:24.666Z,22.62
2019-04-16T05:33:34.499Z,22.62
2019-04-16T05:34:34.616Z,22.65
2019-04-16T05:35:33.818Z,22.65
2019-04-16T05:36:33.810Z,22.67
2019-04-16T05:37:33.799Z,22.68
2019-04-16T05:38:33.798Z,22.72
2019-04-16T05:39:33.775Z,22.68
2019-04-16T05:40:35.162Z,22.68
2019-04-16T05:41:33.755Z,22.73
2019-04-16T05:42:34.320Z,22.77
2019-04-16T05:43:33.733Z,22.73
2019-04-16T05:44:34.204Z,22.73
2019-04-16T05:45:34.423Z,22.76
2019-04-16T05:46:33.711Z,22.83
2019-04-16T05:47:33.687Z,22.82
2019-04-16T05:48:33.683Z,22.79
2019-04-16T05:49:33.659Z,22.85
2019-04-16T05:50:33.652Z,22.86
2019-04-16T05:51:33.637Z,22.88
2019-04-16T05:52:35.959Z,22.92
2019-04-16T05:53:33.624Z,22.86
2019-04-16T05:54:33.611Z,22.83
2019-04-16T05:55:33.601Z,22.83
2019-04-16T05:56:33.630Z,22.94
2019-04-16T05:57:33.576Z,22.85
2019-04-16T05:58:33.622Z,22.91
2019-04-16T05:59:34.449Z,22.92
2019-04-16T06:00:33.541Z,22.97
2019-04-16T06:01:33.528Z,22.91
2019-04-16T06:02:33.522Z,22.95
2019-04-16T06:03:40.827Z,22.91
2019-04-16T06:04:33.499Z,22.97
2019-04-16T06:05:33.487Z,22.92
2019-04-16T06:06:33.471Z,22.91
2019-04-16T06:07:37.754Z,23.00
2019-04-16T06:08:34.447Z,22.97
2019-04-16T06:09:33.480Z,22.92
2019-04-16T06:10:33.431Z,22.95
2019-04-16T06:11:36.494Z,22.95
2019-04-16T06:12:33.407Z,22.94
2019-04-16T06:13:33.396Z,22.98
2019-04-16T06:14:33.386Z,22.97
2019-04-16T06:15:35.830Z,22.95
2019-04-16T06:16:33.364Z,22.97
2019-04-16T06:17:33.351Z,22.86
2019-04-16T06:18:37.128Z,22.91
2019-04-16T06:19:33.330Z,22.95
2019-04-16T06:20:33.322Z,22.95
2019-04-16T06:21:33.346Z,22.95
2019-04-16T06:22:33.302Z,22.94
2019-04-16T06:23:33.282Z,22.98
2019-04-16T06:24:35.777Z,22.95
2019-04-16T06:25:33.263Z,23.00
2019-04-16T06:26:33.255Z,23.01
2019-04-16T06:27:33.255Z,22.97
2019-04-16T06:28:33.228Z,23.05
2019-04-16T06:29:33.219Z,22.92
2019-04-16T06:30:34.107Z,22.91
2019-04-16T06:31:33.198Z,22.92
2019-04-16T06:32:33.225Z,22.91
2019-04-16T06:33:33.180Z,22.92
2019-04-16T06:34:43.674Z,22.95
2019-04-16T06:35:43.009Z,22.92
2019-04-16T06:36:34.153Z,22.98
2019-04-16T06:37:33.138Z,22.97
2019-04-16T06:38:33.139Z,22.91
2019-04-16T06:39:33.107Z,22.91
2019-04-16T06:40:33.094Z,22.90
2019-04-16T06:41:41.538Z,22.94
2019-04-16T06:42:34.071Z,22.90
2019-04-16T06:43:33.066Z,22.85
2019-04-16T06:44:35.015Z,22.80
2019-04-16T06:45:36.487Z,22.88
2019-04-16T06:46:33.032Z,22.85
2019-04-16T06:47:33.014Z,22.83
2019-04-16T06:48:33.006Z,22.83
2019-04-16T06:49:34.498Z,22.68
2019-04-16T06:50:39.621Z,22.83
2019-04-16T06:51:33.990Z,22.83
2019-04-16T06:52:32.959Z,22.80
2019-04-16T06:53:32.946Z,22.80
2019-04-16T06:54:33.174Z,22.86
2019-04-16T06:55:36.039Z,22.85
2019-04-16T06:56:32.922Z,22.85
2019-04-16T06:57:32.925Z,22.85
2019-04-16T06:58:49.878Z,22.83
2019-04-16T06:59:33.883Z,22.73
2019-04-16T07:00:35.088Z,22.80
2019-04-16T07:01:36.713Z,22.85
2019-04-16T07:02:37.261Z,22.85
2019-04-16T07:03:32.840Z,22.86
2019-04-16T07:04:32.825Z,22.85
2019-04-16T07:05:45.102Z,22.82
2019-04-16T07:06:36.019Z,22.86
2019-04-16T07:07:40.011Z,22.82
2019-04-16T07:08:38.545Z,22.79
2019-04-16T07:09:41.291Z,22.80
2019-04-16T07:10:43.958Z,22.83
2019-04-16T07:11:33.744Z,22.79
2019-04-16T07:12:37.976Z,22.80
2019-04-16T07:13:33.770Z,22.83
2019-04-16T07:14:35.932Z,22.85
2019-04-16T07:15:32.706Z,22.79
2019-04-16T07:16:32.698Z,22.79
2019-04-16T07:17:33.675Z,22.90
2019-04-16T07:18:37.944Z,22.91
2019-04-16T07:19:33.692Z,22.90
2019-04-16T07:20:32.653Z,22.80
2019-04-16T07:21:32.671Z,22.86
2019-04-16T07:22:32.629Z,22.90
2019-04-16T07:23:32.789Z,22.82
2019-04-16T07:24:36.604Z,22.85
2019-04-16T07:25:39.774Z,22.83
2019-04-16T07:26:34.044Z,22.83
2019-04-16T07:27:37.855Z,22.86
2019-04-16T07:28:33.657Z,22.83
2019-04-16T07:29:33.418Z,22.85
2019-04-16T07:30:32.625Z,22.91
2019-04-16T07:31:34.271Z,22.82
2019-04-16T07:32:32.512Z,22.85
2019-04-16T07:33:32.504Z,22.90
2019-04-16T07:34:32.496Z,22.92
2019-04-16T07:35:32.483Z,22.85
2019-04-16T07:36:42.972Z,22.88
2019-04-16T07:37:33.091Z,22.92
2019-04-16T07:38:35.172Z,22.85
2019-04-16T07:39:36.861Z,22.95
2019-04-16T07:40:33.422Z,22.90
2019-04-16T07:41:32.421Z,22.88
2019-04-16T07:42:32.443Z,22.92
2019-04-16T07:43:32.397Z,22.91
2019-04-16T07:44:32.379Z,22.86
2019-04-16T07:45:32.371Z,22.88
2019-04-16T07:46:32.364Z,22.88
2019-04-16T07:47:32.365Z,22.85
2019-04-16T07:48:32.882Z,22.94
2019-04-16T07:49:32.326Z,22.91
2019-04-16T07:50:33.262Z,22.95
2019-04-16T07:51:35.833Z,22.94
2019-04-16T07:52:32.294Z,22.92
2019-04-16T07:53:32.326Z,22.94
2019-04-16T07:54:32.274Z,22.92
2019-04-16T07:55:32.266Z,22.98
2019-04-16T07:56:32.249Z,22.91
2019-04-16T07:57:32.243Z,22.92
2019-04-16T07:58:32.228Z,22.91
2019-04-16T07:59:33.001Z,22.88
2019-04-16T08:00:32.207Z,22.95
2019-04-16T08:01:32.196Z,22.92
2019-04-16T08:02:32.196Z,23.01
2019-04-16T08:03:32.171Z,23.02
2019-04-16T08:04:35.435Z,23.00
2019-04-16T08:05:32.183Z,23.04
2019-04-16T08:06:32.141Z,23.07
2019-04-16T08:07:42.229Z,23.02
2019-04-16T08:08:32.121Z,23.05
2019-04-16T08:09:33.636Z,23.00
2019-04-16T08:10:32.101Z,23.05
2019-04-16T08:11:32.119Z,23.10
2019-04-16T08:12:32.070Z,23.10
2019-04-16T08:13:33.735Z,23.05
2019-04-16T08:14:32.055Z,23.09
2019-04-16T08:15:32.040Z,23.07
2019-04-16T08:16:46.342Z,23.10
2019-04-16T08:17:33.032Z,23.12
2019-04-16T08:18:32.003Z,23.12
2019-04-16T08:19:37.105Z,23.02
2019-04-16T08:20:32.985Z,23.10
2019-04-16T08:21:31.978Z,23.05
2019-04-16T08:22:31.959Z,23.12
2019-04-16T08:23:31.958Z,23.13
2019-04-16T08:24:31.946Z,23.07
2019-04-16T08:25:34.048Z,23.09
2019-04-16T08:26:31.918Z,23.12
2019-04-16T08:27:31.909Z,23.17
2019-04-16T08:28:31.900Z,23.13
2019-04-16T08:29:31.889Z,23.16
2019-04-16T08:30:38.995Z,23.17
2019-04-16T08:31:33.233Z,23.20
2019-04-16T08:32:31.857Z,23.09
2019-04-16T08:33:31.844Z,23.04
2019-04-16T08:34:31.826Z,23.09
2019-04-16T08:35:31.901Z,23.22
2019-04-16T08:36:31.850Z,23.13
2019-04-16T08:37:31.793Z,23.04
2019-04-16T08:38:41.744Z,23.16
2019-04-16T08:39:31.773Z,23.07
2019-04-16T08:40:31.767Z,23.12
2019-04-16T08:41:31.754Z,23.12
2019-04-16T08:42:43.868Z,23.10
2019-04-16T08:43:32.729Z,23.10
2019-04-16T08:44:35.218Z,23.10
2019-04-16T08:45:31.708Z,23.10
2019-04-16T08:46:31.696Z,23.20
2019-04-16T08:47:31.681Z,23.09
2019-04-16T08:48:31.706Z,23.10
2019-04-16T08:49:31.664Z,23.19
2019-04-16T08:50:31.651Z,23.13
2019-04-16T08:51:37.053Z,23.15
2019-04-16T08:52:32.626Z,23.17
2019-04-16T08:53:31.613Z,23.22
2019-04-16T08:54:31.646Z,23.13
2019-04-16T08:55:31.594Z,23.25
2019-04-16T08:56:31.588Z,23.20
2019-04-16T08:57:32.802Z,23.20
2019-04-16T08:58:31.561Z,23.19
2019-04-16T08:59:31.552Z,23.27
2019-04-16T09:00:31.580Z,23.25
2019-04-16T09:01:31.525Z,23.22
2019-04-16T09:02:31.513Z,23.22
2019-04-16T09:03:31.505Z,23.27
2019-04-16T09:04:34.479Z,23.27
2019-04-16T09:05:31.482Z,23.23
2019-04-16T09:06:31.486Z,23.23
2019-04-16T09:07:31.464Z,23.25
2019-04-16T09:08:31.453Z,23.20
2019-04-16T09:09:43.101Z,23.25
2019-04-16T09:10:31.429Z,23.23
2019-04-16T09:11:35.049Z,23.22
2019-04-16T09:12:31.457Z,23.20
2019-04-16T09:13:31.396Z,23.25
2019-04-16T09:14:31.399Z,23.20
2019-04-16T09:15:31.370Z,23.15
2019-04-16T09:16:31.361Z,23.23
2019-04-16T09:17:31.353Z,23.25
2019-04-16T09:18:31.339Z,23.19
2019-04-16T09:19:31.323Z,23.25
2019-04-16T09:20:31.353Z,23.27
2019-04-16T09:21:31.304Z,23.27
2019-04-16T09:22:31.289Z,23.28
2019-04-16T09:23:31.306Z,23.33
2019-04-16T09:24:31.272Z,23.31
2019-04-16T09:25:31.261Z,23.28
2019-04-16T09:26:31.265Z,23.32
2019-04-16T09:27:34.182Z,23.32
2019-04-16T09:28:32.045Z,23.33
2019-04-16T09:29:31.210Z,23.36
2019-04-16T09:30:31.201Z,23.38
2019-04-16T09:31:31.187Z,23.38
2019-04-16T09:32:31.191Z,23.36
2019-04-16T09:33:33.589Z,23.31
2019-04-16T09:34:31.163Z,23.46
2019-04-16T09:35:31.145Z,23.35
2019-04-16T09:36:31.137Z,23.39
2019-04-16T09:37:31.169Z,23.46
2019-04-16T09:38:31.113Z,23.46
2019-04-16T09:39:31.102Z,23.46
2019-04-16T09:40:41.503Z,23.38
2019-04-16T09:41:31.077Z,23.43
2019-04-16T09:42:31.183Z,23.36
2019-04-16T09:43:31.153Z,23.39
2019-04-16T09:44:34.992Z,23.38
2019-04-16T09:45:33.880Z,23.43
2019-04-16T09:46:51.124Z,23.42
2019-04-16T09:47:32.746Z,23.46
2019-04-16T09:48:34.231Z,23.43
2019-04-16T09:49:31.028Z,23.51
2019-04-16T09:50:30.981Z,23.47
2019-04-16T09:51:30.969Z,23.50
2019-04-16T09:52:30.958Z,23.47
2019-04-16T09:53:34.196Z,23.53
2019-04-16T09:54:30.931Z,23.50
2019-04-16T09:55:31.002Z,23.50
2019-04-16T09:56:30.926Z,23.55
2019-04-16T09:57:32.312Z,23.57
2019-04-16T09:58:30.908Z,23.53
2019-04-16T09:59:30.878Z,23.58
2019-04-16T10:00:30.889Z,23.53
2019-04-16T10:01:30.859Z,23.53
2019-04-16T10:02:30.848Z,23.57
2019-04-16T10:03:30.833Z,23.54
2019-04-16T10:04:30.829Z,23.68
2019-04-16T10:05:30.816Z,23.69
2019-04-16T10:06:30.902Z,23.69
2019-04-16T10:07:30.814Z,23.69
2019-04-16T10:08:30.776Z,23.61
2019-04-16T10:09:30.771Z,23.69
2019-04-16T10:10:30.804Z,23.66
2019-04-16T10:11:40.685Z,23.70
2019-04-16T10:12:30.739Z,23.68
2019-04-16T10:13:35.724Z,23.70
2019-04-16T10:14:31.724Z,23.72
2019-04-16T10:15:30.706Z,23.60
2019-04-16T10:16:30.698Z,23.72
2019-04-16T10:17:30.699Z,23.66
2019-04-16T10:18:34.627Z,23.69
2019-04-16T10:19:30.653Z,23.66
2019-04-16T10:20:30.646Z,23.65
2019-04-16T10:21:30.637Z,23.75
2019-04-16T10:22:30.621Z,23.68
2019-04-16T10:23:30.683Z,23.73
2019-04-16T10:24:30.600Z,23.63
2019-04-16T10:25:33.681Z,23.69
2019-04-16T10:26:30.598Z,23.68
2019-04-16T10:27:32.259Z,23.66
2019-04-16T10:28:30.556Z,23.72
2019-04-16T10:29:30.557Z,23.63
2019-04-16T10:30:30.572Z,23.63
2019-04-16T10:31:30.529Z,23.70
2019-04-16T10:32:30.530Z,23.70
2019-04-16T10:33:30.512Z,23.68
2019-04-16T10:34:30.526Z,23.76
2019-04-16T10:35:30.482Z,23.75
2019-04-16T10:36:30.470Z,23.65
2019-04-16T10:37:30.452Z,23.73
2019-04-16T10:38:30.444Z,23.76
2019-04-16T10:39:30.433Z,23.73
2019-04-16T10:40:30.433Z,23.69
2019-04-16T10:41:30.429Z,23.65
2019-04-16T10:42:41.018Z,23.65
2019-04-16T10:43:43.674Z,23.54
2019-04-16T10:44:31.378Z,23.78
2019-04-16T10:45:30.371Z,23.57
2019-04-16T10:46:30.366Z,23.65
2019-04-16T10:47:30.362Z,23.78
2019-04-16T10:48:30.335Z,23.61
2019-04-16T10:49:30.329Z,23.70
2019-04-16T10:50:30.348Z,23.68
2019-04-16T10:51:30.307Z,23.72
2019-04-16T10:52:30.316Z,23.68
2019-04-16T10:53:30.279Z,23.76
2019-04-16T10:54:30.271Z,23.72
2019-04-16T10:55:30.273Z,23.72
2019-04-16T10:56:30.286Z,23.73
2019-04-16T10:57:30.238Z,23.75
2019-04-16T10:58:30.232Z,23.78
2019-04-16T10:59:30.239Z,23.84
2019-04-16T11:00:30.201Z,23.76
2019-04-16T11:01:32.927Z,23.80
2019-04-16T11:02:30.252Z,23.78
2019-04-16T11:03:34.428Z,23.84
2019-04-16T11:04:31.164Z,23.79
2019-04-16T11:05:30.163Z,23.87
2019-04-16T11:06:30.139Z,23.83
2019-04-16T11:07:30.128Z,23.83
2019-04-16T11:08:30.160Z,23.83
2019-04-16T11:09:30.096Z,23.83
2019-04-16T11:10:30.091Z,23.83
2019-04-16T11:11:30.077Z,23.87
2019-04-16T11:12:30.066Z,23.91
2019-04-16T11:13:42.291Z,23.85
2019-04-16T11:14:30.052Z,23.91
2019-04-16T11:15:30.117Z,23.95
2019-04-16T11:16:30.109Z,23.93
2019-04-16T11:17:30.014Z,23.94
2019-04-16T11:18:30.008Z,23.95
2019-04-16T11:19:30.038Z,23.95
2019-04-16T11:20:29.992Z,24.02
2019-04-16T11:21:30.058Z,23.94
2019-04-16T11:22:29.956Z,24.00
2019-04-16T11:23:29.963Z,23.98
2019-04-16T11:24:29.942Z,23.93
2019-04-16T11:25:29.930Z,24.05
2019-04-16T11:26:29.915Z,23.90
2019-04-16T11:27:29.901Z,23.90
2019-04-16T11:28:29.891Z,23.93
2019-04-16T11:29:29.911Z,24.00
2019-04-16T11:30:29.944Z,24.00
2019-04-16T11:31:29.873Z,24.03
2019-04-16T11:32:29.856Z,23.98
2019-04-16T11:33:29.835Z,24.06
2019-04-16T11:34:29.834Z,24.09
2019-04-16T11:35:29.812Z,24.05
2019-04-16T11:36:30.941Z,23.98
2019-04-16T11:37:35.825Z,23.95
2019-04-16T11:38:30.785Z,24.00
2019-04-16T11:39:29.772Z,24.09
2019-04-16T11:40:29.767Z,24.08
2019-04-16T11:41:29.758Z,24.08
2019-04-16T11:42:29.793Z,24.08
2019-04-16T11:43:29.733Z,24.09
2019-04-16T11:44:40.218Z,24.02
2019-04-16T11:45:29.730Z,24.06
2019-04-16T11:46:29.695Z,24.03
2019-04-16T11:47:33.919Z,24.10
2019-04-16T11:48:30.684Z,24.08
2019-04-16T11:49:29.662Z,24.05
2019-04-16T11:50:29.662Z,24.02
2019-04-16T11:51:29.642Z,24.09
2019-04-16T11:52:29.638Z,24.03
2019-04-16T11:53:29.662Z,24.08
2019-04-16T11:54:29.611Z,24.06
2019-04-16T11:55:29.600Z,23.97
2019-04-16T11:56:29.596Z,24.00
2019-04-16T11:57:33.198Z,24.08
2019-04-16T11:58:29.568Z,24.06
2019-04-16T11:59:29.626Z,24.06
2019-04-16T12:00:29.551Z,24.15
2019-04-16T12:01:29.531Z,24.12
2019-04-16T12:02:29.557Z,24.15
2019-04-16T12:03:29.545Z,24.02
2019-04-16T12:04:29.504Z,24.15
2019-04-16T12:05:29.507Z,24.12
2019-04-16T12:06:29.487Z,24.13
2019-04-16T12:07:29.477Z,24.12
2019-04-16T12:08:29.509Z,24.15
2019-04-16T12:09:29.448Z,24.10
2019-04-16T12:10:29.450Z,24.03
2019-04-16T12:11:29.501Z,24.09
2019-04-16T12:12:29.433Z,24.20
2019-04-16T12:13:29.415Z,24.16
2019-04-16T12:14:34.380Z,24.12
2019-04-16T12:16:42.547Z,24.15
2019-04-16T12:17:42.474Z,24.12
2019-04-16T12:18:42.573Z,24.20
2019-04-16T12:19:44.788Z,24.16
2019-04-16T12:20:42.448Z,24.13
2019-04-16T12:21:42.450Z,24.13
2019-04-16T12:22:42.465Z,24.08
2019-04-16T12:23:42.446Z,24.06
2019-04-16T12:24:42.438Z,24.20
2019-04-16T12:25:42.410Z,24.15
2019-04-16T12:26:42.379Z,24.15
2019-04-16T12:27:42.361Z,24.10
2019-04-16T12:28:43.407Z,24.13
2019-04-16T12:29:42.371Z,24.21
2019-04-16T12:30:42.333Z,24.18
2019-04-16T12:31:42.337Z,24.09
2019-04-16T12:32:42.353Z,24.18
2019-04-16T12:33:42.337Z,24.12
2019-04-16T12:34:42.292Z,24.09
2019-04-16T12:35:45.205Z,24.08
2019-04-16T12:36:42.260Z,24.10
2019-04-16T12:37:42.276Z,24.09
2019-04-16T12:38:42.305Z,24.08
2019-04-16T12:39:42.244Z,24.09
2019-04-16T12:40:42.524Z,24.12
2019-04-16T12:41:42.253Z,24.15
2019-04-16T12:42:42.560Z,24.10
2019-04-16T12:43:42.219Z,24.12
2019-04-16T12:44:45.527Z,24.02
2019-04-16T12:45:42.201Z,24.02
2019-04-16T12:46:49.168Z,24.13
2019-04-16T12:47:42.234Z,24.08
2019-04-16T12:48:42.264Z,24.05
2019-04-16T12:49:42.125Z,24.02
2019-04-16T12:50:42.123Z,24.08
2019-04-16T12:51:42.137Z,23.98
2019-04-16T12:52:42.111Z,24.06
2019-04-16T12:53:42.073Z,24.06
2019-04-16T12:54:42.071Z,24.05